This is the latest recevied weather packets stored in our database for station/object Allmendg1. If no packets are shown the sender has not sent any weather packets the latest 1 day(s).
| Time | Temp. | Humidity | Pressure | Rain* | Wind** | Luminosity | Snow |
|---|---|---|---|---|---|---|---|
| 1778004131 | 16.67° C | 69% | 1005.8 hPa | 0 mm | 1.34 m/s, 236° | - | - |
| 1778002330 | 16.67° C | 67% | 1005.6 hPa | 0 mm | 2.24 m/s, 253° | - | - |
| 1778000530 | 17.22° C | 64% | 1005.5 hPa | 0 mm | 3.58 m/s, 269° | - | - |
| 1777998731 | 17.78° C | 62% | 1005.5 hPa | 0 mm | 3.13 m/s, 231° | - | - |
| 1777995130 | 17.22° C | 69% | 1005.5 hPa | 0 mm | 1.79 m/s, 264° | - | - |
| 1777993336 | 16.67° C | 72% | 1005.5 hPa | 0 mm | 2.24 m/s, 50° | - | - |
| 1777991532 | 16.11° C | 77% | 1005.8 hPa | 0 mm | 2.24 m/s, 53° | - | - |
| 1777989730 | 16.11° C | 75% | 1006.2 hPa | 0 mm | 2.24 m/s, 305° | - | - |
| 1777987930 | 16.67° C | 71% | 1006 hPa | 0 mm | 3.13 m/s, 331° | - | - |
| 1777986130 | 16.67° C | 74% | 1006.4 hPa | 0 mm | 0.89 m/s, 261° | - | - |
| 1777984330 | 16.67° C | 68% | 1006.6 hPa | 0 mm | 2.68 m/s, 232° | - | - |
| 1777982530 | 17.78° C | 63% | 1006.4 hPa | 0 mm | 4.47 m/s, 249° | - | - |
| 1777980730 | 18.33° C | 63% | 1006.1 hPa | 0 mm | 3.58 m/s, 234° | - | - |
| 1777978931 | 18.33° C | 63% | 1006 hPa | 0 mm | 2.24 m/s, 200° | - | - |
| 1777977131 | 18.33° C | 67% | 1006.1 hPa | 0 mm | 2.24 m/s, 149° | - | - |
| 1777975332 | 18.33° C | 65% | 1006.3 hPa | 0 mm | 1.79 m/s, 184° | - | - |
| 1777973532 | 18.33° C | 65% | 1006.4 hPa | 0 mm | 2.24 m/s, 240° | - | - |
| 1777971732 | 17.78° C | 69% | 1006.6 hPa | 0 mm | 2.24 m/s, 232° | - | - |
| 1777969931 | 17.78° C | 70% | 1006.7 hPa | 0 mm | 2.68 m/s, 195° | - | - |
| 1777968130 | 17.78° C | 69% | 1006.9 hPa | 0 mm | 1.34 m/s, 200° | - | - |
| 1777966330 | 16.11° C | 73% | 1007.2 hPa | 0 mm | 0.89 m/s, 257° | - | - |
| 1777964531 | 15° C | 78% | 1007.4 hPa | 0 mm | 0 m/s | - | - |
| 1777962731 | 13.33° C | 82% | 1007.7 hPa | 0 mm | 0 m/s | - | - |
* Rain since midnight (hover to see other rain measurements)
** Current wind speed in m/s (hover to see current wind gust speed)